createdAt,value
2023-03-16T00:00:18.604Z,46.46
2023-03-16T00:02:45.457Z,46.24
2023-03-16T00:05:14.089Z,45.53
2023-03-16T00:07:44.697Z,45.63
2023-03-16T00:10:14.885Z,45.75
2023-03-16T00:12:43.969Z,45.83
2023-03-16T00:15:12.688Z,45.17
2023-03-16T00:17:39.395Z,44.96
2023-03-16T00:20:07.216Z,45.12
2023-03-16T00:22:34.191Z,45.21
2023-03-16T00:25:01.921Z,44.85
2023-03-16T00:27:29.547Z,44.64
2023-03-16T00:29:56.828Z,45.38
2023-03-16T00:32:26.903Z,45.06
2023-03-16T00:34:54.088Z,44.97
2023-03-16T00:37:23.626Z,44.65
2023-03-16T00:39:51.843Z,44.95
2023-03-16T00:42:20.095Z,44.22
2023-03-16T00:44:46.946Z,43.97
2023-03-16T00:47:16.676Z,43.77
2023-03-16T00:49:44.211Z,43.48
2023-03-16T00:52:16.330Z,44.01
2023-03-16T00:54:44.825Z,43.96
2023-03-16T00:57:13.792Z,44.34
2023-03-16T00:59:41.574Z,43.96
2023-03-16T01:02:10.074Z,44.41
2023-03-16T01:04:37.326Z,44.58
2023-03-16T01:07:05.335Z,44.75
2023-03-16T01:09:37.011Z,44.37
2023-03-16T01:12:09.538Z,44.11
2023-03-16T01:14:37.124Z,43.71
2023-03-16T01:17:08.456Z,43.44
2023-03-16T01:19:57.041Z,43.43
2023-03-16T01:22:23.936Z,43.78
2023-03-16T01:24:50.517Z,43.23
2023-03-16T01:27:17.461Z,42.89
2023-03-16T01:29:44.563Z,43.07
2023-03-16T01:32:12.219Z,42.66
2023-03-16T01:34:39.263Z,42.49
2023-03-16T01:37:06.452Z,43.08
2023-03-16T01:39:41.409Z,42.76
2023-03-16T01:42:09.097Z,43.28
2023-03-16T01:45:01.630Z,43.07
2023-03-16T01:47:38.438Z,42.91
2023-03-16T01:50:07.626Z,42.99
2023-03-16T01:52:38.635Z,43.07
2023-03-16T01:55:13.560Z,42.89
2023-03-16T01:57:43.892Z,42.58
2023-03-16T02:00:23.674Z,43.56
2023-03-16T02:03:13.930Z,44.28
2023-03-16T02:06:03.288Z,43.90
2023-03-16T02:08:31.835Z,44.50
2023-03-16T02:10:59.517Z,44.35
2023-03-16T02:13:37.291Z,44.38
2023-03-16T02:16:08.762Z,43.75
2023-03-16T02:18:36.368Z,44.04
2023-03-16T02:21:28.132Z,43.77
2023-03-16T02:23:55.243Z,43.36
2023-03-16T02:26:50.827Z,44.39
2023-03-16T02:29:33.092Z,44.59
2023-03-16T02:32:02.750Z,44.54
2023-03-16T02:34:30.086Z,44.70
2023-03-16T02:36:58.606Z,44.99
2023-03-16T02:39:25.654Z,44.73
2023-03-16T02:41:52.711Z,44.48
2023-03-16T02:44:27.934Z,44.49
2023-03-16T02:46:58.437Z,45.04
2023-03-16T02:49:32.776Z,45.46
2023-03-16T02:51:59.966Z,45.78
2023-03-16T02:54:27.035Z,45.52
2023-03-16T02:56:53.736Z,46.06
2023-03-16T02:59:21.589Z,46.44
2023-03-16T03:01:48.560Z,46.16
2023-03-16T03:04:16.542Z,46.79
2023-03-16T03:06:43.361Z,47.08
2023-03-16T03:09:11.874Z,46.27
2023-03-16T03:11:39.641Z,46.45
2023-03-16T03:14:06.751Z,46.64
2023-03-16T03:16:34.045Z,46.29
2023-03-16T03:19:01.077Z,45.92
2023-03-16T03:21:29.655Z,45.99
2023-03-16T03:23:56.416Z,46.07
2023-03-16T03:26:24.671Z,46.58
2023-03-16T03:28:52.766Z,46.91
2023-03-16T03:31:22.278Z,47.23
2023-03-16T03:33:50.817Z,47.34
2023-03-16T03:36:17.390Z,47.64
2023-03-16T03:38:44.709Z,47.70
2023-03-16T03:41:12.912Z,48.08
2023-03-16T03:43:39.691Z,47.41
2023-03-16T03:46:08.157Z,47.62
2023-03-16T03:48:34.959Z,47.84
2023-03-16T03:51:02.890Z,47.71
2023-03-16T03:53:44.133Z,48.68
2023-03-16T03:56:18.754Z,48.24
2023-03-16T03:58:46.055Z,48.35
2023-03-16T04:01:16.881Z,48.27
2023-03-16T04:03:45.152Z,48.44
2023-03-16T04:06:13.640Z,48.35
2023-03-16T04:08:40.281Z,48.83
2023-03-16T04:11:09.888Z,48.33
2023-03-16T04:13:36.638Z,49.15
2023-03-16T04:16:04.100Z,48.74
2023-03-16T04:18:41.033Z,48.81
2023-03-16T04:21:15.887Z,47.79
2023-03-16T04:23:43.438Z,48.03
2023-03-16T04:26:11.155Z,47.92
2023-03-16T04:28:38.436Z,47.99
2023-03-16T04:31:07.401Z,47.79
2023-03-16T04:33:39.983Z,47.67
2023-03-16T04:36:07.339Z,48.02
2023-03-16T04:38:36.678Z,48.21
2023-03-16T04:41:04.731Z,48.25
2023-03-16T04:43:37.507Z,48.10
2023-03-16T04:46:15.523Z,49.06
2023-03-16T04:48:42.809Z,48.60
2023-03-16T04:51:10.105Z,48.67
2023-03-16T04:53:39.462Z,49.17
2023-03-16T04:56:18.421Z,49.77
2023-03-16T04:58:50.620Z,49.53
2023-03-16T05:01:18.545Z,49.06
2023-03-16T05:03:46.029Z,49.33
2023-03-16T05:06:12.965Z,49.12
2023-03-16T05:08:40.767Z,48.94
2023-03-16T05:11:08.117Z,49.03
2023-03-16T05:13:37.387Z,48.73
2023-03-16T05:16:04.630Z,48.95
2023-03-16T05:18:35.390Z,48.86
2023-03-16T05:21:02.337Z,49.11
2023-03-16T05:23:37.879Z,49.08
2023-03-16T05:26:05.121Z,48.92
2023-03-16T05:28:33.193Z,49.64
2023-03-16T05:31:04.016Z,49.45
2023-03-16T05:33:36.125Z,49.42
2023-03-16T05:36:06.669Z,49.37
2023-03-16T05:38:34.068Z,49.74
2023-03-16T05:41:04.607Z,51.45
2023-03-16T05:43:42.261Z,50.32
2023-03-16T05:46:09.617Z,49.69
2023-03-16T05:48:37.350Z,49.57
2023-03-16T05:51:06.152Z,49.84
2023-03-16T05:53:33.749Z,51.56
2023-03-16T05:56:08.463Z,51.33
2023-03-16T05:58:38.181Z,51.21
2023-03-16T06:01:07.803Z,50.51
2023-03-16T06:03:34.478Z,49.84
2023-03-16T06:06:02.237Z,49.02
2023-03-16T06:08:36.593Z,49.11
2023-03-16T06:11:07.977Z,48.32
2023-03-16T06:13:34.777Z,48.25
2023-03-16T06:16:02.297Z,47.90
2023-03-16T06:18:29.582Z,48.58
2023-03-16T06:20:56.389Z,48.16
2023-03-16T06:23:24.255Z,48.32
2023-03-16T06:25:54.621Z,47.77
2023-03-16T06:28:23.215Z,48.31
2023-03-16T06:30:54.126Z,47.95
2023-03-16T06:33:21.418Z,48.69
2023-03-16T06:35:50.029Z,47.77
2023-03-16T06:38:21.715Z,47.94
2023-03-16T06:40:55.208Z,47.97
2023-03-16T06:43:22.227Z,48.79
2023-03-16T06:45:49.664Z,48.29
2023-03-16T06:48:16.987Z,48.44
2023-03-16T06:50:46.639Z,48.54
2023-03-16T06:53:18.983Z,48.64
2023-03-16T06:55:46.206Z,48.33
2023-03-16T06:58:12.846Z,48.37
2023-03-16T07:00:40.506Z,47.82
2023-03-16T07:03:07.234Z,48.67
2023-03-16T07:05:34.111Z,49.43
2023-03-16T07:08:01.382Z,49.19
2023-03-16T07:10:28.417Z,50.39
2023-03-16T07:12:55.425Z,50.11
2023-03-16T07:15:22.513Z,51.00
2023-03-16T07:17:50.212Z,50.34
2023-03-16T07:20:16.974Z,51.52
2023-03-16T07:22:43.784Z,51.96
2023-03-16T07:25:11.642Z,51.43
2023-03-16T07:27:43.852Z,53.27
2023-03-16T07:30:14.424Z,53.33
2023-03-16T07:32:42.810Z,53.57
2023-03-16T07:35:11.843Z,54.86
2023-03-16T07:37:38.592Z,54.88
2023-03-16T07:40:09.365Z,56.05
2023-03-16T07:42:37.761Z,55.93
2023-03-16T07:45:15.210Z,54.16
2023-03-16T07:47:42.393Z,55.77
2023-03-16T07:50:17.020Z,54.92
2023-03-16T07:52:47.063Z,53.67
2023-03-16T07:55:14.550Z,54.21
2023-03-16T07:57:42.324Z,53.44
2023-03-16T08:00:10.763Z,52.44
2023-03-16T08:02:41.959Z,52.14
2023-03-16T08:05:13.045Z,50.26
2023-03-16T08:07:41.520Z,49.69
2023-03-16T08:10:12.107Z,49.65
2023-03-16T08:12:43.826Z,49.53
2023-03-16T08:15:11.872Z,47.99
2023-03-16T08:17:41.884Z,47.32
2023-03-16T08:20:15.071Z,46.63
2023-03-16T08:22:46.152Z,44.73
2023-03-16T08:25:15.325Z,45.22
2023-03-16T08:27:50.330Z,44.70
2023-03-16T08:30:17.993Z,42.54
2023-03-16T08:32:48.308Z,42.67
2023-03-16T08:35:16.859Z,43.10
2023-03-16T08:37:44.392Z,43.06
2023-03-16T08:40:15.977Z,42.20
2023-03-16T08:42:44.483Z,42.08
2023-03-16T08:45:14.420Z,42.04
2023-03-16T08:47:43.086Z,41.04
2023-03-16T08:50:13.321Z,40.21
2023-03-16T08:52:40.897Z,39.71
2023-03-16T08:55:10.394Z,39.39
2023-03-16T08:57:39.458Z,39.72
2023-03-16T09:00:13.628Z,38.90
2023-03-16T09:02:41.746Z,38.51
2023-03-16T09:05:11.366Z,37.68
2023-03-16T09:07:39.502Z,37.45
2023-03-16T09:10:07.926Z,37.25
2023-03-16T09:12:38.545Z,37.58
2023-03-16T09:15:06.852Z,37.31
2023-03-16T09:17:34.779Z,38.50
2023-03-16T09:20:15.326Z,39.38
2023-03-16T09:22:46.173Z,38.67
2023-03-16T09:25:12.792Z,37.37
2023-03-16T09:27:39.625Z,36.27
2023-03-16T09:30:08.099Z,37.70
2023-03-16T09:32:35.249Z,38.06
2023-03-16T09:35:02.602Z,38.67
2023-03-16T09:37:44.431Z,38.10
2023-03-16T09:40:39.694Z,36.65
2023-03-16T09:43:27.633Z,36.04
2023-03-16T09:46:27.163Z,36.21
2023-03-16T09:48:56.120Z,35.78
2023-03-16T09:51:35.400Z,36.57
2023-03-16T09:54:06.662Z,35.43
2023-03-16T09:56:41.543Z,36.07
2023-03-16T09:59:16.661Z,36.92
2023-03-16T10:01:50.778Z,37.45
2023-03-16T10:04:50.735Z,36.88
2023-03-16T10:07:30.313Z,36.27
2023-03-16T10:10:02.279Z,35.79
2023-03-16T10:12:36.093Z,36.21
2023-03-16T10:15:10.308Z,37.10
2023-03-16T10:17:37.649Z,36.60
2023-03-16T10:20:17.470Z,35.79
2023-03-16T10:22:46.941Z,36.18
2023-03-16T10:25:27.738Z,35.81
2023-03-16T10:27:54.642Z,35.91
2023-03-16T10:30:28.307Z,35.89
2023-03-16T10:33:02.371Z,35.39
2023-03-16T10:35:58.261Z,36.01
2023-03-16T10:38:38.889Z,35.59
2023-03-16T10:41:17.825Z,35.76
2023-03-16T10:43:49.668Z,34.88
2023-03-16T10:46:16.810Z,35.56
2023-03-16T10:48:53.673Z,36.82
2023-03-16T10:51:26.288Z,38.01
2023-03-16T10:53:54.589Z,37.67
2023-03-16T10:56:25.446Z,38.11
2023-03-16T10:58:52.422Z,37.82
2023-03-16T11:01:24.169Z,37.47
2023-03-16T11:03:55.575Z,36.69
2023-03-16T11:06:25.848Z,37.35
2023-03-16T11:08:55.094Z,36.96
2023-03-16T11:11:30.010Z,36.73
2023-03-16T11:14:02.162Z,37.39
2023-03-16T11:16:40.248Z,37.65
2023-03-16T11:19:29.322Z,36.30
2023-03-16T11:22:02.109Z,36.02
2023-03-16T11:24:41.500Z,35.98
2023-03-16T11:27:21.596Z,36.31
2023-03-16T11:30:12.095Z,35.13
2023-03-16T11:32:40.833Z,34.21
2023-03-16T11:35:19.752Z,32.74
2023-03-16T11:38:11.822Z,33.99
2023-03-16T11:41:00.335Z,33.81
2023-03-16T11:43:53.642Z,32.68
2023-03-16T11:46:31.720Z,34.23
2023-03-16T11:49:17.813Z,34.74
2023-03-16T11:52:08.414Z,33.92
2023-03-16T11:54:48.689Z,33.88
2023-03-16T11:57:59.665Z,35.52
2023-03-16T12:00:46.820Z,34.08
2023-03-16T12:03:37.826Z,34.46
2023-03-16T12:06:33.057Z,34.38
2023-03-16T12:09:23.069Z,33.96
2023-03-16T12:12:17.400Z,33.46
2023-03-16T12:14:53.938Z,33.01
2023-03-16T12:17:27.438Z,32.53
2023-03-16T12:20:04.167Z,33.03
2023-03-16T12:22:41.118Z,32.44
2023-03-16T12:25:25.269Z,33.26
2023-03-16T12:27:58.692Z,33.11
2023-03-16T12:30:49.038Z,34.67
2023-03-16T12:33:53.313Z,34.84
2023-03-16T12:36:43.119Z,34.20
2023-03-16T12:39:30.006Z,33.52
2023-03-16T12:42:15.164Z,33.75
2023-03-16T12:45:08.645Z,34.79
2023-03-16T12:47:48.557Z,33.15
2023-03-16T12:50:18.777Z,32.98
2023-03-16T12:52:52.180Z,32.95
2023-03-16T12:55:19.537Z,33.42
2023-03-16T12:57:51.505Z,32.63
2023-03-16T13:00:19.649Z,32.55
2023-03-16T13:02:56.220Z,34.14
2023-03-16T13:05:32.903Z,34.42
2023-03-16T13:08:05.796Z,33.37
2023-03-16T13:10:33.418Z,33.41
2023-03-16T13:13:16.259Z,32.59
2023-03-16T13:15:47.577Z,32.96
2023-03-16T13:18:17.418Z,33.06
2023-03-16T13:21:00.931Z,32.75
2023-03-16T13:23:30.245Z,32.70
2023-03-16T13:26:22.967Z,32.32
2023-03-16T13:28:55.325Z,32.75
2023-03-16T13:31:25.411Z,32.79
2023-03-16T13:33:56.119Z,33.36
2023-03-16T13:36:27.165Z,32.86
2023-03-16T13:39:18.762Z,32.53
2023-03-16T13:42:18.425Z,32.80
2023-03-16T13:44:45.645Z,32.42
2023-03-16T13:47:17.160Z,33.02
2023-03-16T13:49:45.226Z,32.77
2023-03-16T13:52:20.993Z,32.98
2023-03-16T13:54:50.221Z,33.13
2023-03-16T13:57:25.050Z,33.34
2023-03-16T13:59:59.097Z,33.90
2023-03-16T14:02:25.859Z,35.41
2023-03-16T14:04:52.498Z,36.42
2023-03-16T14:07:20.980Z,35.23
2023-03-16T14:09:49.945Z,36.37
2023-03-16T14:12:20.070Z,35.13
2023-03-16T14:14:50.833Z,34.40
2023-03-16T14:17:20.762Z,33.97
2023-03-16T14:19:54.381Z,34.51
2023-03-16T14:22:28.676Z,36.47
2023-03-16T14:25:00.739Z,35.15
2023-03-16T14:27:39.882Z,36.17
2023-03-16T14:30:18.316Z,35.89
2023-03-16T14:33:01.800Z,35.10
2023-03-16T14:35:33.910Z,35.53
2023-03-16T14:38:37.135Z,35.55
2023-03-16T14:41:08.808Z,35.59
2023-03-16T14:43:38.373Z,34.52
2023-03-16T14:46:07.408Z,35.23
2023-03-16T14:48:35.697Z,35.07
2023-03-16T14:51:04.475Z,35.14
2023-03-16T14:53:31.830Z,35.63
2023-03-16T14:55:59.503Z,35.13
2023-03-16T14:58:26.224Z,35.22
2023-03-16T15:00:53.904Z,35.00
2023-03-16T15:03:27.329Z,35.22
2023-03-16T15:05:54.672Z,35.85
2023-03-16T15:08:28.710Z,35.17
2023-03-16T15:11:00.851Z,34.87
2023-03-16T15:13:35.190Z,35.01
2023-03-16T15:16:06.218Z,35.17
2023-03-16T15:18:33.779Z,36.14
2023-03-16T15:21:02.380Z,36.87
2023-03-16T15:23:29.347Z,37.13
2023-03-16T15:26:00.395Z,36.49
2023-03-16T15:28:27.841Z,36.67
2023-03-16T15:30:57.510Z,36.76
2023-03-16T15:33:25.797Z,36.66
2023-03-16T15:35:56.620Z,36.40
2023-03-16T15:38:24.802Z,37.50
2023-03-16T15:40:53.245Z,37.05
2023-03-16T15:43:25.684Z,37.04
2023-03-16T15:45:52.590Z,38.00
2023-03-16T15:48:21.684Z,37.92
2023-03-16T15:50:56.887Z,37.57
2023-03-16T15:53:33.608Z,38.22
2023-03-16T15:56:08.286Z,37.87
2023-03-16T15:58:36.625Z,37.89
2023-03-16T16:01:07.360Z,37.64
2023-03-16T16:03:34.570Z,36.93
2023-03-16T16:06:02.100Z,37.39
2023-03-16T16:08:28.884Z,37.35
2023-03-16T16:10:56.452Z,37.13
2023-03-16T16:13:37.552Z,37.16
2023-03-16T16:16:12.616Z,37.10
2023-03-16T16:18:40.264Z,37.03
2023-03-16T16:21:14.229Z,37.05
2023-03-16T16:23:40.915Z,37.15
2023-03-16T16:26:20.410Z,37.07
2023-03-16T16:28:47.797Z,37.09
2023-03-16T16:31:14.626Z,37.65
2023-03-16T16:33:41.391Z,37.77
2023-03-16T16:36:15.146Z,37.82
2023-03-16T16:38:41.827Z,38.00
2023-03-16T16:41:09.502Z,38.45
2023-03-16T16:43:44.017Z,38.43
2023-03-16T16:46:15.621Z,38.55
2023-03-16T16:48:46.573Z,38.65
2023-03-16T16:51:24.975Z,38.76
2023-03-16T16:53:54.469Z,39.13
2023-03-16T16:56:33.732Z,39.57
2023-03-16T16:59:07.740Z,39.39
2023-03-16T17:01:35.397Z,39.52
2023-03-16T17:04:02.855Z,39.99
2023-03-16T17:06:30.065Z,40.17
2023-03-16T17:08:56.681Z,40.04
2023-03-16T17:11:29.879Z,40.05
2023-03-16T17:14:00.659Z,40.16
2023-03-16T17:16:31.607Z,40.55
2023-03-16T17:18:58.761Z,40.76
2023-03-16T17:21:29.977Z,40.57
2023-03-16T17:23:57.561Z,41.07
2023-03-16T17:26:39.611Z,41.42
2023-03-16T17:29:17.719Z,41.49
2023-03-16T17:31:44.335Z,41.88
2023-03-16T17:34:23.248Z,41.55
2023-03-16T17:36:50.204Z,42.38
2023-03-16T17:39:25.072Z,42.04
2023-03-16T17:42:01.449Z,42.51
2023-03-16T17:44:33.866Z,43.02
2023-03-16T17:47:00.826Z,43.15
2023-03-16T17:49:28.604Z,43.23
2023-03-16T17:51:56.068Z,43.12
2023-03-16T17:54:23.096Z,43.39
2023-03-16T17:56:51.983Z,43.56
2023-03-16T17:59:21.728Z,43.20
2023-03-16T18:01:48.968Z,43.26
2023-03-16T18:04:17.540Z,44.00
2023-03-16T18:06:47.149Z,44.34
2023-03-16T18:09:15.069Z,44.70
2023-03-16T18:11:46.697Z,44.73
2023-03-16T18:14:36.590Z,44.88
2023-03-16T18:17:32.504Z,45.32
2023-03-16T18:19:59.860Z,45.35
2023-03-16T18:22:27.924Z,45.54
2023-03-16T18:24:55.315Z,45.59
2023-03-16T18:27:22.419Z,46.20
2023-03-16T18:29:49.217Z,45.57
2023-03-16T18:32:27.438Z,45.67
2023-03-16T18:34:54.830Z,45.96
2023-03-16T18:37:24.567Z,46.39
2023-03-16T18:39:52.874Z,46.50
2023-03-16T18:42:21.870Z,46.75
2023-03-16T18:44:49.104Z,46.63
2023-03-16T18:47:43.325Z,46.86
2023-03-16T18:50:20.000Z,47.17
2023-03-16T18:52:47.050Z,47.04
2023-03-16T18:55:16.886Z,46.73
2023-03-16T18:57:43.650Z,46.86
2023-03-16T19:00:16.122Z,47.02
2023-03-16T19:02:44.508Z,47.52
2023-03-16T19:05:21.987Z,47.63
2023-03-16T19:07:52.433Z,47.56
2023-03-16T19:10:26.376Z,47.84
2023-03-16T19:12:54.813Z,47.90
2023-03-16T19:15:27.980Z,47.92
2023-03-16T19:17:55.387Z,48.10
2023-03-16T19:20:27.328Z,48.25
2023-03-16T19:23:16.218Z,48.58
2023-03-16T19:25:43.293Z,49.07
2023-03-16T19:28:33.692Z,48.62
2023-03-16T19:31:02.010Z,48.66
2023-03-16T19:33:29.321Z,48.68
2023-03-16T19:35:57.217Z,48.50
2023-03-16T19:38:25.654Z,48.77
2023-03-16T19:40:56.415Z,48.61
2023-03-16T19:43:24.360Z,48.90
2023-03-16T19:45:51.786Z,48.89
2023-03-16T19:48:22.687Z,48.60
2023-03-16T19:50:51.215Z,48.84
2023-03-16T19:53:22.641Z,48.56
2023-03-16T19:55:52.143Z,48.84
2023-03-16T19:58:38.533Z,49.03
2023-03-16T20:01:17.618Z,49.12
2023-03-16T20:03:47.559Z,49.01
2023-03-16T20:06:16.566Z,49.28
2023-03-16T20:08:44.189Z,49.42
2023-03-16T20:11:29.425Z,49.37
2023-03-16T20:13:57.393Z,49.34
2023-03-16T20:16:28.576Z,49.45
2023-03-16T20:18:58.921Z,49.12
2023-03-16T20:21:26.700Z,49.14
2023-03-16T20:23:54.346Z,49.27
2023-03-16T20:26:27.581Z,49.57
2023-03-16T20:28:54.525Z,49.78
2023-03-16T20:31:24.617Z,49.46
2023-03-16T20:33:52.869Z,49.58
2023-03-16T20:36:21.958Z,49.26
2023-03-16T20:38:48.903Z,49.38
2023-03-16T20:41:32.286Z,49.50
2023-03-16T20:44:01.892Z,49.21
2023-03-16T20:46:31.113Z,49.24
2023-03-16T20:49:00.704Z,49.71
2023-03-16T20:51:28.818Z,49.56
2023-03-16T20:53:55.498Z,49.46
2023-03-16T20:56:25.833Z,49.48
2023-03-16T20:58:55.811Z,49.50
2023-03-16T21:01:23.473Z,49.45
2023-03-16T21:03:54.465Z,49.97
2023-03-16T21:06:27.665Z,50.01
2023-03-16T21:08:57.129Z,49.94
2023-03-16T21:11:37.461Z,49.85
2023-03-16T21:14:06.261Z,49.96
2023-03-16T21:16:33.424Z,50.16
2023-03-16T21:19:00.114Z,49.92
2023-03-16T21:21:26.784Z,49.96
2023-03-16T21:23:53.466Z,49.58
2023-03-16T21:26:23.269Z,50.00
2023-03-16T21:28:57.581Z,51.11
2023-03-16T21:31:25.919Z,51.03
2023-03-16T21:33:54.112Z,50.65
2023-03-16T21:36:23.815Z,50.47
2023-03-16T21:38:51.007Z,50.05
2023-03-16T21:41:18.004Z,50.20
2023-03-16T21:43:46.696Z,49.90
2023-03-16T21:46:18.910Z,49.87
2023-03-16T21:48:49.684Z,49.98
2023-03-16T21:51:30.325Z,50.25
2023-03-16T21:53:58.240Z,50.33
2023-03-16T21:56:26.185Z,50.08
2023-03-16T21:58:53.960Z,50.18
2023-03-16T22:01:30.251Z,49.99
2023-03-16T22:04:01.758Z,50.01
2023-03-16T22:06:29.065Z,49.80
2023-03-16T22:08:57.660Z,49.86
2023-03-16T22:11:29.514Z,50.11
2023-03-16T22:13:58.003Z,49.63
2023-03-16T22:16:28.113Z,50.34
2023-03-16T22:18:57.031Z,50.44
2023-03-16T22:21:34.380Z,50.24
2023-03-16T22:24:02.748Z,50.85
2023-03-16T22:26:29.831Z,50.48
2023-03-16T22:28:57.444Z,50.65
2023-03-16T22:31:32.899Z,50.34
2023-03-16T22:34:00.864Z,50.22
2023-03-16T22:36:28.461Z,50.23
2023-03-16T22:39:01.999Z,50.32
2023-03-16T22:41:29.988Z,50.46
2023-03-16T22:43:57.292Z,50.90
2023-03-16T22:46:27.092Z,50.91
2023-03-16T22:48:55.515Z,50.48
2023-03-16T22:51:48.426Z,50.64
2023-03-16T22:54:18.428Z,50.79
2023-03-16T22:56:47.760Z,50.73
2023-03-16T22:59:18.831Z,51.00
2023-03-16T23:01:48.714Z,51.23
2023-03-16T23:04:16.873Z,51.46
2023-03-16T23:06:43.644Z,51.43
2023-03-16T23:09:13.873Z,51.79
2023-03-16T23:11:43.477Z,51.51
2023-03-16T23:14:14.641Z,51.34
2023-03-16T23:16:41.990Z,51.69
2023-03-16T23:19:34.051Z,52.02
2023-03-16T23:22:06.355Z,51.99
2023-03-16T23:24:34.398Z,51.77
2023-03-16T23:27:01.521Z,51.86
2023-03-16T23:29:28.915Z,52.06
2023-03-16T23:31:56.664Z,51.69
2023-03-16T23:34:25.095Z,51.92
2023-03-16T23:36:52.758Z,51.96
2023-03-16T23:39:19.386Z,52.31
2023-03-16T23:41:47.651Z,52.42
2023-03-16T23:44:24.518Z,51.20
2023-03-16T23:46:51.513Z,52.12
2023-03-16T23:49:22.466Z,51.84
2023-03-16T23:51:50.290Z,52.18
2023-03-16T23:54:23.429Z,51.77
2023-03-16T23:56:50.780Z,51.93
2023-03-16T23:59:19.597Z,52.07
